Wind From: 10-12-2017 19:04 Until: 11-12-2017 16:00 warning for: Wind Level: Orange info button

Power and phone distribution networks may be disrupted for relatively long periods., Roofs and chimneys can be damaged. , Tree branches may break. , Vehicles can be deported. , Traffic may be disrupted, particularly on secondary roads in forest areas. Limit your trips. , Limit your speed in highway driving, especially if you drive a vehicle or hitch sensitive to wind. , Do not go for walks in forests or along the coast., In town, be vigilant against possible falling objects., Do not work on roofs and do not touch any electrical line fallen on the ground., Store or secure sensitive objects to wind or likely to be damaged., Always install power generators outside buildings. 


Meteo18 Weather Cam more information Meteo18 Weather Cam


Thunder radar more information blitzortung!


Rain radar more information rain snow radar


Visit our other weather sites:

Template documentation
and downloads

And another site



Weather Underground History page Text

Daily Summary for September 2, 2017 Units:  Metric    English   Both
« Previous Day
Next Day »
Daily Weekly Monthly Yearly Custom
  High: Low: Average:
Temperature: 19.8 °C 11.0 °C 14.8 °C
Dew Point: 12.3 °C 9.4 °C 10.6 °C
Humidity: 94 % 52 % 77 %
Wind Speed: 24.1 km/h 0.0 km/h 2.8 km/h
Wind Gust: 27.4 km/h - -
Wind:- - SW
Pressure: 1022.9 hPa 1021.2 hPa -
Precipitation: 0.0 mm    
Historical Graphs
 
 
Tabular Data for September 2, 2017
Time Temperature Dew Point Pressure Wind Wind Speed Wind Gust Humidity Rainfall Rate (Hourly)
00:02 12.9 °C 10.6 °C 1022.2 hPa West 1.6 km/h 3.2 km/h 86 % 0.0 mm
00:07 12.8 °C 10.5 °C 1022.2 hPa Calm   4.8 km/h 86 % 0.0 mm
00:12 12.7 °C 10.6 °C 1022.2 hPa Calm   4.8 km/h 87 % 0.0 mm
00:17 12.7 °C 10.6 °C 1022.2 hPa Calm   4.8 km/h 87 % 0.0 mm
00:22 12.6 °C 10.5 °C 1022.2 hPa Calm   4.8 km/h 87 % 0.0 mm
00:32 12.4 °C 10.5 °C 1022.2 hPa Calm   1.6 km/h 88 % 0.0 mm
00:37 12.2 °C 10.3 °C 1022.2 hPa Calm   1.6 km/h 88 % 0.0 mm
00:42 11.9 °C 10.1 °C 1022.2 hPa Calm   4.8 km/h 89 % 0.0 mm
00:52 11.7 °C 10.1 °C 1022.2 hPa Calm   4.8 km/h 90 % 0.0 mm
00:57 11.7 °C 10.1 °C 1022.2 hPa Calm   1.6 km/h 90 % 0.0 mm
01:02 11.6 °C 10.2 °C 1022.2 hPa Calm   1.6 km/h 91 % 0.0 mm
01:12 11.6 °C 10.2 °C 1022.2 hPa Calm   1.6 km/h 91 % 0.0 mm
01:17 11.5 °C 10.2 °C 1022.2 hPa Calm   1.6 km/h 92 % 0.0 mm
01:22 11.6 °C 10.3 °C 1022.2 hPa Calm   1.6 km/h 92 % 0.0 mm
01:27 11.6 °C 10.3 °C 1022.2 hPa Calm   1.6 km/h 92 % 0.0 mm
01:32 11.6 °C 10.3 °C 1022.2 hPa Calm   1.6 km/h 92 % 0.0 mm
01:37 11.7 °C 10.4 °C 1022.2 hPa Calm     92 % 0.0 mm
01:42 11.6 °C 10.3 °C 1022.2 hPa Calm     92 % 0.0 mm
01:47 11.7 °C 10.4 °C 1022.2 hPa Calm     92 % 0.0 mm
01:52 11.7 °C 10.4 °C 1022.2 hPa Calm     92 % 0.0 mm
01:57 11.8 °C 10.5 °C 1022.2 hPa Calm     92 % 0.0 mm
02:02 11.8 °C 10.4 °C 1022.2 hPa Calm     91 % 0.0 mm
02:12 11.7 °C 10.3 °C 1022.2 hPa Calm     91 % 0.0 mm
02:17 11.8 °C 10.5 °C 1022.2 hPa Calm     92 % 0.0 mm
02:22 11.8 °C 10.5 °C 1022.2 hPa Calm     92 % 0.0 mm
02:32 11.8 °C 10.5 °C 1022.2 hPa Calm     92 % 0.0 mm
02:37 11.8 °C 10.5 °C 1022.2 hPa Calm     92 % 0.0 mm
02:42 11.8 °C 10.5 °C 1021.9 hPa Calm     92 % 0.0 mm
02:52 11.7 °C 10.4 °C 1021.9 hPa Calm     92 % 0.0 mm
02:57 11.6 °C 10.3 °C 1021.9 hPa Calm     92 % 0.0 mm
03:02 11.6 °C 10.3 °C 1022.2 hPa Calm     92 % 0.0 mm
03:07 11.7 °C 10.6 °C 1022.2 hPa Calm     93 % 0.0 mm
03:12 11.7 °C 10.6 °C 1022.2 hPa Calm     93 % 0.0 mm
03:17 11.6 °C 10.5 °C 1022.2 hPa Calm     93 % 0.0 mm
03:22 11.6 °C 10.5 °C 1022.2 hPa Calm     93 % 0.0 mm
03:27 11.6 °C 10.5 °C 1022.2 hPa Calm     93 % 0.0 mm
03:32 11.6 °C 10.5 °C 1022.2 hPa Calm     93 % 0.0 mm
03:37 11.6 °C 10.5 °C 1022.2 hPa Calm     93 % 0.0 mm
03:42 11.5 °C 10.4 °C 1022.2 hPa Calm     93 % 0.0 mm
03:47 11.4 °C 10.3 °C 1022.2 hPa Calm     93 % 0.0 mm
03:52 11.4 °C 10.3 °C 1022.2 hPa Calm     93 % 0.0 mm
03:57 11.3 °C 10.2 °C 1022.2 hPa Calm     93 % 0.0 mm
04:02 11.2 °C 10.1 °C 1022.2 hPa Calm     93 % 0.0 mm
04:12 11.2 °C 10.3 °C 1022.2 hPa Calm     94 % 0.0 mm
04:17 11.2 °C 10.3 °C 1022.2 hPa Calm     94 % 0.0 mm
04:22 11.2 °C 10.3 °C 1022.2 hPa Calm     94 % 0.0 mm
04:27 11.1 °C 10.2 °C 1022.2 hPa Calm     94 % 0.0 mm
04:32 11.1 °C 10.2 °C 1021.9 hPa Calm     94 % 0.0 mm
04:37 11.1 °C 10.2 °C 1021.9 hPa Calm     94 % 0.0 mm
04:42 11.1 °C 10.2 °C 1021.9 hPa Calm     94 % 0.0 mm
04:47 11.1 °C 10.2 °C 1022.2 hPa Calm     94 % 0.0 mm
04:52 11.1 °C 10.2 °C 1021.9 hPa Calm     94 % 0.0 mm
04:57 11.1 °C 10.2 °C 1021.9 hPa Calm     94 % 0.0 mm
05:02 11.0 °C 10.1 °C 1021.9 hPa Calm     94 % 0.0 mm
05:12 11.1 °C 10.2 °C 1021.9 hPa Calm     94 % 0.0 mm
05:17 11.1 °C 10.2 °C 1021.9 hPa Calm     94 % 0.0 mm
05:27 11.1 °C 10.0 °C 1021.9 hPa Calm     93 % 0.0 mm
05:32 11.1 °C 10.0 °C 1021.9 hPa West 1.6 km/h   93 % 0.0 mm
05:37 11.2 °C 10.1 °C 1021.9 hPa Calm   3.2 km/h 93 % 0.0 mm
05:42 11.3 °C 10.0 °C 1021.9 hPa West 1.6 km/h 3.2 km/h 92 % 0.0 mm
05:52 11.4 °C 10.1 °C 1021.9 hPa WNW 3.2 km/h 3.2 km/h 92 % 0.0 mm
05:57 11.7 °C 10.3 °C 1021.9 hPa West 1.6 km/h 11.3 km/h 91 % 0.0 mm
06:02 11.8 °C 10.2 °C 1021.9 hPa WNW 3.2 km/h 11.3 km/h 90 % 0.0 mm
06:07 11.9 °C 10.1 °C 1021.9 hPa NW 1.6 km/h 11.3 km/h 89 % 0.0 mm
06:12 12.0 °C 10.2 °C 1021.9 hPa WNW 4.8 km/h 11.3 km/h 89 % 0.0 mm
06:17 12.1 °C 10.2 °C 1021.9 hPa NNW 3.2 km/h 12.9 km/h 88 % 0.0 mm
06:22 12.1 °C 10.2 °C 1021.9 hPa WNW 3.2 km/h 12.9 km/h 88 % 0.0 mm
06:32 12.1 °C 10.2 °C 1021.6 hPa NW 3.2 km/h 11.3 km/h 88 % 0.0 mm
06:37 12.1 °C 10.2 °C 1021.6 hPa NNW 3.2 km/h 11.3 km/h 88 % 0.0 mm
06:42 12.1 °C 10.2 °C 1021.6 hPa NE 4.8 km/h 9.7 km/h 88 % 0.0 mm
06:47 12.1 °C 10.3 °C 1021.9 hPa NNW 3.2 km/h 9.7 km/h 89 % 0.0 mm
06:52 12.0 °C 10.2 °C 1021.9 hPa NNW 1.6 km/h 8.0 km/h 89 % 0.0 mm
07:02 12.0 °C 10.2 °C 1021.9 hPa NW 1.6 km/h 4.8 km/h 89 % 0.0 mm
07:07 11.9 °C 10.1 °C 1021.9 hPa NNW 1.6 km/h 4.8 km/h 89 % 0.0 mm
07:12 11.9 °C 10.1 °C 1021.9 hPa Calm   4.8 km/h 89 % 0.0 mm
07:17 11.9 °C 10.1 °C 1021.9 hPa NW 1.6 km/h 3.2 km/h 89 % 0.0 mm
07:22 11.9 °C 10.1 °C 1021.9 hPa Calm   1.6 km/h 89 % 0.0 mm
07:27 11.9 °C 10.1 °C 1021.9 hPa Calm   1.6 km/h 89 % 0.0 mm
07:32 11.9 °C 10.1 °C 1021.9 hPa Calm   1.6 km/h 89 % 0.0 mm
07:37 11.9 °C 10.1 °C 1021.9 hPa Calm     89 % 0.0 mm
07:42 11.8 °C 10.2 °C 1021.9 hPa Calm     90 % 0.0 mm
07:47 11.9 °C 10.3 °C 1021.9 hPa Calm     90 % 0.0 mm
07:52 11.9 °C 10.3 °C 1021.9 hPa Calm   1.6 km/h 90 % 0.0 mm
07:57 11.9 °C 10.3 °C 1021.9 hPa Calm   3.2 km/h 90 % 0.0 mm
08:02 12.0 °C 10.4 °C 1021.9 hPa Calm   3.2 km/h 90 % 0.0 mm
08:07 12.1 °C 10.5 °C 1021.9 hPa Calm   1.6 km/h 90 % 0.0 mm
08:12 12.1 °C 10.5 °C 1021.9 hPa Calm   1.6 km/h 90 % 0.0 mm
08:17 12.1 °C 10.5 °C 1021.9 hPa WNW 1.6 km/h 1.6 km/h 90 % 0.0 mm
08:22 12.2 °C 10.6 °C 1021.9 hPa Calm   1.6 km/h 90 % 0.0 mm
08:27 12.2 °C 10.6 °C 1021.9 hPa Calm   1.6 km/h 90 % 0.0 mm
08:32 12.3 °C 10.7 °C 1021.9 hPa NW 1.6 km/h 3.2 km/h 90 % 0.0 mm
08:37 12.3 °C 10.7 °C 1021.9 hPa Calm   3.2 km/h 90 % 0.0 mm
08:42 12.4 °C 10.8 °C 1022.2 hPa Calm   3.2 km/h 90 % 0.0 mm
08:47 12.4 °C 10.8 °C 1022.2 hPa Calm   3.2 km/h 90 % 0.0 mm
08:52 12.6 °C 10.8 °C 1022.2 hPa WNW 1.6 km/h 1.6 km/h 89 % 0.0 mm
08:57 12.7 °C 10.9 °C 1022.2 hPa Calm   3.2 km/h 89 % 0.0 mm
09:02 12.8 °C 11.0 °C 1022.2 hPa Calm   3.2 km/h 89 % 0.0 mm
09:12 13.1 °C 11.0 °C 1022.2 hPa Calm   1.6 km/h 87 % 0.0 mm
09:17 13.2 °C 11.1 °C 1022.2 hPa Calm   1.6 km/h 87 % 0.0 mm
09:22 13.3 °C 11.0 °C 1022.6 hPa Calm   1.6 km/h 86 % 0.0 mm
09:27 13.4 °C 11.1 °C 1022.2 hPa Calm   1.6 km/h 86 % 0.0 mm
09:32 13.7 °C 11.4 °C 1022.2 hPa Calm   1.6 km/h 86 % 0.0 mm
09:37 13.7 °C 11.0 °C 1022.2 hPa Calm   1.6 km/h 84 % 0.0 mm
09:42 13.9 °C 11.2 °C 1022.6 hPa Calm   6.4 km/h 84 % 0.0 mm
09:47 14.2 °C 11.5 °C 1022.6 hPa Calm   6.4 km/h 84 % 0.0 mm
09:52 14.3 °C 11.3 °C 1022.6 hPa West 3.2 km/h 6.4 km/h 82 % 0.0 mm
09:57 14.4 °C 11.4 °C 1022.6 hPa NW 4.8 km/h 4.8 km/h 82 % 0.0 mm
10:02 14.4 °C 11.4 °C 1022.6 hPa NNE 1.6 km/h 6.4 km/h 82 % 0.0 mm
10:07 14.6 °C 11.6 °C 1022.6 hPa North 1.6 km/h 9.7 km/h 82 % 0.0 mm
10:12 14.6 °C 11.7 °C 1022.6 hPa NE 3.2 km/h 11.3 km/h 83 % 0.0 mm
10:17 14.6 °C 11.6 °C 1022.6 hPa North 3.2 km/h 11.3 km/h 82 % 0.0 mm
10:22 14.5 °C 11.5 °C 1022.6 hPa NNW 6.4 km/h 11.3 km/h 82 % 0.0 mm
10:27 14.6 °C 11.6 °C 1022.6 hPa WNW 1.6 km/h 9.7 km/h 82 % 0.0 mm
10:32 14.7 °C 11.7 °C 1022.9 hPa NNE 1.6 km/h 8.0 km/h 82 % 0.0 mm
10:37 15.0 °C 11.8 °C 1022.9 hPa North 3.2 km/h 6.4 km/h 81 % 0.0 mm
10:42 15.2 °C 12.0 °C 1022.9 hPa NE 9.7 km/h 9.7 km/h 81 % 0.0 mm
10:47 15.3 °C 11.9 °C 1022.9 hPa NNE 8.0 km/h 11.3 km/h 80 % 0.0 mm
10:52 15.2 °C 11.8 °C 1022.9 hPa NNE 8.0 km/h 17.7 km/h 80 % 0.0 mm
10:57 15.1 °C 11.7 °C 1022.9 hPa NNE 4.8 km/h 17.7 km/h 80 % 0.0 mm
11:02 15.3 °C 12.2 °C 1022.9 hPa Calm   17.7 km/h 82 % 0.0 mm
11:07 15.5 °C 11.9 °C 1022.9 hPa NNW 4.8 km/h 12.9 km/h 79 % 0.0 mm
11:12 15.5 °C 11.9 °C 1022.9 hPa WNW 1.6 km/h 11.3 km/h 79 % 0.0 mm
11:17 15.3 °C 11.5 °C 1022.9 hPa NE 8.0 km/h 11.3 km/h 78 % 0.0 mm
11:22 15.3 °C 11.7 °C 1022.9 hPa Calm   9.7 km/h 79 % 0.0 mm
11:27 15.5 °C 11.9 °C 1022.9 hPa NNE 1.6 km/h 9.7 km/h 79 % 0.0 mm
11:32 15.6 °C 11.8 °C 1022.9 hPa Calm   9.7 km/h 78 % 0.0 mm
11:37 15.7 °C 11.5 °C 1022.9 hPa NNE 4.8 km/h 4.8 km/h 76 % 0.0 mm
11:42 15.7 °C 11.5 °C 1022.9 hPa NE 4.8 km/h 9.7 km/h 76 % 0.0 mm
11:47 15.9 °C 11.3 °C 1022.9 hPa ENE 4.8 km/h 9.7 km/h 74 % 0.0 mm
11:52 16.2 °C 11.8 °C 1022.9 hPa East 3.2 km/h 9.7 km/h 75 % 0.0 mm
11:57 16.6 °C 11.5 °C 1022.9 hPa NNE 3.2 km/h 9.7 km/h 72 % 0.0 mm
12:02 16.8 °C 12.3 °C 1022.9 hPa East 3.2 km/h 8.0 km/h 75 % 0.0 mm
12:07 16.9 °C 11.8 °C 1022.9 hPa Calm   8.0 km/h 72 % 0.0 mm
12:12 16.6 °C 11.9 °C 1022.9 hPa Calm   6.4 km/h 74 % 0.0 mm
12:17 16.5 °C 12.1 °C 1022.6 hPa Calm   4.8 km/h 75 % 0.0 mm
12:22 16.3 °C 11.5 °C 1022.6 hPa Calm   4.8 km/h 73 % 0.0 mm
12:27 16.2 °C 11.6 °C 1022.6 hPa Calm   4.8 km/h 74 % 0.0 mm
12:32 16.2 °C 11.6 °C 1022.6 hPa Calm   6.4 km/h 74 % 0.0 mm
12:37 16.3 °C 11.2 °C 1022.6 hPa Calm   6.4 km/h 72 % 0.0 mm
12:42 16.3 °C 11.5 °C 1022.6 hPa NNW 1.6 km/h 6.4 km/h 73 % 0.0 mm
12:47 16.3 °C 11.2 °C 1022.6 hPa WNW 1.6 km/h 6.4 km/h 72 % 0.0 mm
12:52 16.8 °C 11.7 °C 1022.6 hPa Calm   4.8 km/h 72 % 0.0 mm
12:57 17.0 °C 11.5 °C 1022.2 hPa NE 4.8 km/h 4.8 km/h 70 % 0.0 mm
13:02 17.3 °C 12.2 °C 1022.2 hPa WNW 4.8 km/h 6.4 km/h 72 % 0.0 mm
13:07 17.4 °C 11.7 °C 1022.2 hPa WNW 3.2 km/h 8.0 km/h 69 % 0.0 mm
13:12 17.6 °C 11.8 °C 1022.2 hPa West 4.8 km/h 11.3 km/h 69 % 0.0 mm
13:17 17.9 °C 12.1 °C 1022.2 hPa NNW 1.6 km/h 11.3 km/h 69 % 0.0 mm
13:22 17.9 °C 10.8 °C 1022.2 hPa NNW 6.4 km/h 11.3 km/h 63 % 0.0 mm
13:27 17.7 °C 10.8 °C 1022.2 hPa WNW 4.8 km/h 17.7 km/h 64 % 0.0 mm
13:32 17.9 °C 10.8 °C 1022.2 hPa WNW 3.2 km/h 17.7 km/h 63 % 0.0 mm
13:37 18.3 °C 10.4 °C 1022.2 hPa NNW 4.8 km/h 17.7 km/h 60 % 0.0 mm
13:42 18.3 °C 10.4 °C 1021.9 hPa WNW 1.6 km/h 14.5 km/h 60 % 0.0 mm
13:47 18.6 °C 10.9 °C 1021.9 hPa NNE 6.4 km/h 14.5 km/h 61 % 0.0 mm
13:52 18.4 °C 10.7 °C 1021.9 hPa NE 8.0 km/h 14.5 km/h 61 % 0.0 mm
13:57 18.2 °C 10.8 °C 1021.9 hPa NW 1.6 km/h 19.3 km/h 62 % 0.0 mm
14:02 18.6 °C 10.7 °C 1021.9 hPa NNW 4.8 km/h 19.3 km/h 60 % 0.0 mm
14:07 18.9 °C 10.2 °C 1021.9 hPa WNW 8.0 km/h 19.3 km/h 57 % 0.0 mm
14:12 19.1 °C 9.8 °C 1021.9 hPa WNW 6.4 km/h 14.5 km/h 55 % 0.0 mm
14:17 19.2 °C 9.7 °C 1021.9 hPa NW 8.0 km/h 16.1 km/h 54 % 0.0 mm
14:27 19.5 °C 9.9 °C 1021.6 hPa NW 1.6 km/h 19.3 km/h 54 % 0.0 mm
14:32 19.8 °C 10.2 °C 1021.6 hPa NNW 6.4 km/h 19.3 km/h 54 % 0.0 mm
14:42 19.6 °C 9.5 °C 1021.6 hPa North 9.7 km/h 19.3 km/h 52 % 0.0 mm
14:47 19.1 °C 10.1 °C 1021.6 hPa NW 14.5 km/h 19.3 km/h 56 % 0.0 mm
14:52 18.3 °C 10.4 °C 1021.6 hPa WNW 6.4 km/h 19.3 km/h 60 % 0.0 mm
14:57 17.6 °C 10.0 °C 1021.6 hPa NW 9.7 km/h 25.7 km/h 61 % 0.0 mm
15:02 17.1 °C 9.5 °C 1021.9 hPa WNW 24.1 km/h 25.7 km/h 61 % 0.0 mm
15:12 16.2 °C 9.8 °C 1021.9 hPa WSW 11.3 km/h 27.4 km/h 66 % 0.0 mm
15:17 16.0 °C 10.1 °C 1021.9 hPa WNW 6.4 km/h 27.4 km/h 68 % 0.0 mm
15:22 16.1 °C 10.2 °C 1021.9 hPa West 14.5 km/h 22.5 km/h 68 % 0.0 mm
15:27 16.1 °C 10.2 °C 1021.9 hPa NNE 11.3 km/h 25.7 km/h 68 % 0.0 mm
15:32 16.2 °C 10.3 °C 1021.6 hPa NNW 14.5 km/h 25.7 km/h 68 % 0.0 mm
15:37 16.6 °C 10.4 °C 1021.6 hPa WNW 8.0 km/h 25.7 km/h 67 % 0.0 mm
15:42 17.2 °C 11.2 °C 1021.9 hPa West 9.7 km/h 22.5 km/h 68 % 0.0 mm
15:47 17.7 °C 11.0 °C 1021.6 hPa WNW 8.0 km/h 22.5 km/h 65 % 0.0 mm
15:52 18.1 °C 10.2 °C 1021.6 hPa SW 6.4 km/h 24.1 km/h 60 % 0.0 mm
15:57 18.3 °C 10.4 °C 1021.6 hPa WNW 14.5 km/h 24.1 km/h 60 % 0.0 mm
16:02 18.4 °C 10.0 °C 1021.6 hPa WSW 12.9 km/h 24.1 km/h 58 % 0.0 mm
16:07 18.4 °C 10.2 °C 1021.6 hPa NNW 11.3 km/h 22.5 km/h 59 % 0.0 mm
16:12 18.7 °C 10.8 °C 1021.6 hPa WNW 11.3 km/h 24.1 km/h 60 % 0.0 mm
16:17 18.7 °C 10.8 °C 1021.6 hPa North 6.4 km/h 24.1 km/h 60 % 0.0 mm
16:22 19.0 °C 10.8 °C 1021.6 hPa WSW 9.7 km/h 24.1 km/h 59 % 0.0 mm
16:32 19.1 °C 10.4 °C 1021.2 hPa WNW 3.2 km/h 17.7 km/h 57 % 0.0 mm
16:37 19.3 °C 11.1 °C 1021.2 hPa WSW 11.3 km/h 17.7 km/h 59 % 0.0 mm
16:42 19.0 °C 11.3 °C 1021.2 hPa WNW 8.0 km/h 16.1 km/h 61 % 0.0 mm
16:47 19.0 °C 9.8 °C 1021.6 hPa NNW 9.7 km/h 22.5 km/h 55 % 0.0 mm
16:52 18.6 °C 9.4 °C 1021.6 hPa WNW 16.1 km/h 22.5 km/h 55 % 0.0 mm
16:57 18.3 °C 9.6 °C 1021.6 hPa WNW 12.9 km/h 22.5 km/h 57 % 0.0 mm
17:02 18.6 °C 10.4 °C 1021.6 hPa North 6.4 km/h 22.5 km/h 59 % 0.0 mm
17:07 18.9 °C 10.5 °C 1021.6 hPa North 8.0 km/h 22.5 km/h 58 % 0.0 mm
17:12 19.0 °C 10.5 °C 1021.6 hPa WNW 12.9 km/h 20.9 km/h 58 % 0.0 mm
17:17 19.3 °C 10.8 °C 1021.6 hPa NNW 12.9 km/h 17.7 km/h 58 % 0.0 mm
17:22 19.3 °C 10.6 °C 1021.6 hPa WNW 11.3 km/h 17.7 km/h 57 % 0.0 mm
17:27 19.6 °C 10.3 °C 1021.6 hPa NW 6.4 km/h 19.3 km/h 55 % 0.0 mm
17:32 19.7 °C 9.9 °C 1021.6 hPa NNE 8.0 km/h 19.3 km/h 53 % 0.0 mm
17:37 19.5 °C 10.2 °C 1021.6 hPa North 6.4 km/h 19.3 km/h 55 % 0.0 mm
17:42 18.8 °C 10.9 °C 1021.6 hPa NW 9.7 km/h 25.7 km/h 60 % 0.0 mm
17:47 17.9 °C 10.5 °C 1021.6 hPa NE 8.0 km/h 25.7 km/h 62 % 0.0 mm
17:52 17.5 °C 10.6 °C 1021.6 hPa NNE 11.3 km/h 25.7 km/h 64 % 0.0 mm
17:57 17.3 °C 10.9 °C 1021.6 hPa ENE 11.3 km/h 22.5 km/h 66 % 0.0 mm
18:02 17.4 °C 11.0 °C 1021.6 hPa ENE 4.8 km/h 22.5 km/h 66 % 0.0 mm
18:07 17.8 °C 10.9 °C 1021.6 hPa NE 11.3 km/h 22.5 km/h 64 % 0.0 mm
18:12 17.9 °C 10.8 °C 1021.6 hPa NE 1.6 km/h 17.7 km/h 63 % 0.0 mm
18:17 18.3 °C 10.9 °C 1021.6 hPa North 6.4 km/h 12.9 km/h 62 % 0.0 mm
18:22 18.7 °C 10.8 °C 1021.6 hPa NE 6.4 km/h 12.9 km/h 60 % 0.0 mm
18:27 18.8 °C 10.4 °C 1021.6 hPa NE 1.6 km/h 11.3 km/h 58 % 0.0 mm
18:32 18.9 °C 11.0 °C 1021.2 hPa NE 3.2 km/h 11.3 km/h 60 % 0.0 mm
18:42 18.6 °C 11.2 °C 1021.6 hPa NNW 4.8 km/h 17.7 km/h 62 % 0.0 mm
18:47 18.6 °C 10.9 °C 1021.6 hPa NNW 4.8 km/h 17.7 km/h 61 % 0.0 mm
18:57 18.6 °C 10.7 °C 1021.6 hPa NE 11.3 km/h 12.9 km/h 60 % 0.0 mm
19:02 18.5 °C 10.3 °C 1021.2 hPa NE 8.0 km/h 12.9 km/h 59 % 0.0 mm
19:07 18.5 °C 11.1 °C 1021.2 hPa ENE 4.8 km/h 12.9 km/h 62 % 0.0 mm
19:12 18.4 °C 10.7 °C 1021.2 hPa Calm   12.9 km/h 61 % 0.0 mm
19:17 18.6 °C 10.9 °C 1021.2 hPa NE 1.6 km/h 8.0 km/h 61 % 0.0 mm
19:22 18.6 °C 10.7 °C 1021.6 hPa ENE 1.6 km/h 6.4 km/h 60 % 0.0 mm
19:27 18.6 °C 10.9 °C 1021.2 hPa North 3.2 km/h 4.8 km/h 61 % 0.0 mm
19:32 18.6 °C 10.9 °C 1021.2 hPa Calm   4.8 km/h 61 % 0.0 mm
19:37 18.7 °C 11.0 °C 1021.2 hPa Calm   4.8 km/h 61 % 0.0 mm
19:42 18.8 °C 10.4 °C 1021.2 hPa NW 3.2 km/h 4.8 km/h 58 % 0.0 mm
19:47 18.6 °C 9.9 °C 1021.2 hPa North 3.2 km/h 6.4 km/h 57 % 0.0 mm
19:52 18.4 °C 9.7 °C 1021.2 hPa Calm   6.4 km/h 57 % 0.0 mm
19:57 18.3 °C 9.9 °C 1021.2 hPa Calm   6.4 km/h 58 % 0.0 mm
20:02 18.1 °C 9.7 °C 1021.2 hPa Calm   4.8 km/h 58 % 0.0 mm
20:07 17.8 °C 9.7 °C 1021.2 hPa Calm   1.6 km/h 59 % 0.0 mm
20:12 17.6 °C 10.2 °C 1021.6 hPa Calm   1.6 km/h 62 % 0.0 mm
20:17 17.2 °C 10.6 °C 1021.6 hPa Calm   1.6 km/h 65 % 0.0 mm
20:22 16.9 °C 10.7 °C 1021.6 hPa Calm     67 % 0.0 mm
20:27 16.6 °C 10.9 °C 1021.6 hPa Calm     69 % 0.0 mm
20:32 16.4 °C 10.9 °C 1021.6 hPa Calm     70 % 0.0 mm
20:37 16.2 °C 10.7 °C 1021.6 hPa Calm     70 % 0.0 mm
20:42 15.8 °C 10.6 °C 1021.6 hPa Calm     71 % 0.0 mm
20:47 15.6 °C 10.6 °C 1021.6 hPa Calm     72 % 0.0 mm
20:52 15.2 °C 10.4 °C 1021.6 hPa Calm     73 % 0.0 mm
20:57 14.9 °C 10.5 °C 1021.6 hPa Calm     75 % 0.0 mm
21:02 14.7 °C 10.3 °C 1021.6 hPa Calm     75 % 0.0 mm
21:07 14.4 °C 10.2 °C 1021.9 hPa West 3.2 km/h   76 % 0.0 mm
21:12 14.4 °C 10.2 °C 1021.9 hPa Calm   8.0 km/h 76 % 0.0 mm
21:17 14.4 °C 10.2 °C 1021.9 hPa WSW 1.6 km/h 8.0 km/h 76 % 0.0 mm
21:22 14.6 °C 10.2 °C 1021.9 hPa NW 1.6 km/h 8.0 km/h 75 % 0.0 mm
21:27 15.2 °C 10.4 °C 1021.9 hPa NNW 3.2 km/h 8.0 km/h 73 % 0.0 mm
21:32 15.5 °C 10.3 °C 1021.9 hPa NNW 3.2 km/h 8.0 km/h 71 % 0.0 mm
21:37 15.6 °C 10.4 °C 1021.9 hPa Calm   6.4 km/h 71 % 0.0 mm
21:42 15.4 °C 10.2 °C 1021.9 hPa WNW 1.6 km/h 6.4 km/h 71 % 0.0 mm
21:52 15.1 °C 10.1 °C 1021.9 hPa Calm   3.2 km/h 72 % 0.0 mm
21:57 15.0 °C 10.2 °C 1021.9 hPa NNW 1.6 km/h 3.2 km/h 73 % 0.0 mm
22:02 14.7 °C 10.1 °C 1021.9 hPa WNW 3.2 km/h 3.2 km/h 74 % 0.0 mm
22:07 14.6 °C 10.4 °C 1021.9 hPa Calm   4.8 km/h 76 % 0.0 mm
22:12 14.6 °C 10.4 °C 1021.9 hPa Calm   4.8 km/h 76 % 0.0 mm
22:17 14.6 °C 10.4 °C 1021.9 hPa Calm   4.8 km/h 76 % 0.0 mm
22:22 14.6 °C 10.6 °C 1021.9 hPa Calm   4.8 km/h 77 % 0.0 mm
22:27 14.6 °C 10.8 °C 1021.9 hPa Calm   3.2 km/h 78 % 0.0 mm
22:32 14.6 °C 11.0 °C 1021.9 hPa NW 1.6 km/h 3.2 km/h 79 % 0.0 mm
22:37 14.6 °C 11.2 °C 1021.9 hPa Calm   1.6 km/h 80 % 0.0 mm
22:42 14.5 °C 11.1 °C 1021.9 hPa Calm   1.6 km/h 80 % 0.0 mm
22:47 14.4 °C 11.0 °C 1021.9 hPa Calm   1.6 km/h 80 % 0.0 mm
22:52 14.2 °C 11.0 °C 1021.9 hPa Calm   1.6 km/h 81 % 0.0 mm
22:57 14.0 °C 10.8 °C 1021.9 hPa Calm   1.6 km/h 81 % 0.0 mm
23:02 13.7 °C 10.5 °C 1021.9 hPa WNW 3.2 km/h 3.2 km/h 81 % 0.0 mm
23:07 13.5 °C 10.5 °C 1021.9 hPa Calm   3.2 km/h 82 % 0.0 mm
23:12 13.4 °C 10.4 °C 1021.9 hPa Calm   3.2 km/h 82 % 0.0 mm
23:17 13.7 °C 10.5 °C 1021.9 hPa Calm   3.2 km/h 81 % 0.0 mm
23:22 13.6 °C 10.4 °C 1021.9 hPa WNW 1.6 km/h 1.6 km/h 81 % 0.0 mm
23:27 13.2 °C 10.2 °C 1021.9 hPa WNW 1.6 km/h 1.6 km/h 82 % 0.0 mm
23:32 12.9 °C 10.1 °C 1021.9 hPa WNW 3.2 km/h 3.2 km/h 83 % 0.0 mm
23:42 12.8 °C 10.0 °C 1021.9 hPa Calm   3.2 km/h 83 % 0.0 mm
23:47 12.9 °C 9.7 °C 1021.6 hPa Calm   3.2 km/h 81 % 0.0 mm
23:52 13.0 °C 9.8 °C 1021.6 hPa Calm   1.6 km/h 81 % 0.0 mm
23:57 12.9 °C 9.5 °C 1021.9 hPa Calm     80 % 0.0 mm
Meteo18
Compliments of Weather Underground - 4 mb

Script developed by  Jim McMurry - jmcmurry@mwt.net Adapted for the template by  Wim van der Kuil - Leuven-Template.eu

You find our weather info also at:

European Weather Network

Weather Underground

Equipment we use:

Weather-station
Davis Vue

Weather-program
Meteohub

Weather-server
Raspberry PI 2 B+

Provider
1 and 1

Davis Vue

Meteohub

Raspberry PI 2 B+

1 and 1